CFG7NY EDDF-LKPR
Flight info
| Callsign | CFG7NY |
|---|---|
| Flight time | 0h 48m |
| Altitude | 29000 |
| Route | SULUS6F/25C SULUS Z650 TONSU Z35 ODOMO DCT LOMKI |
| Aircraft | E190/M-SDGHIJ1RWY/LB1 |
Departure
| Time | 2026-05-04 08:13 |
|---|---|
| Airport | Frankfurt Main Airport (EDDF) |
Arrival
| Time | 2026-05-04 09:01 |
|---|---|
| Airport | Václav Havel Airport Prague (LKPR) |
| Time | Latitude | Longitude | Altitude | Speed | Heading |
|---|---|---|---|---|---|
| 2026-05-04 07:39 | 50.04911 | 8.59691 | 368 ft | 0 kts | 296° |
| 2026-05-04 08:04 | 50.04904 | 8.59714 | 369 ft | 4 kts | 297° |
| 2026-05-04 08:05 | 50.04894 | 8.59743 | 369 ft | 4 kts | 287° |
| 2026-05-04 08:05 | 50.04894 | 8.59782 | 369 ft | 4 kts | 250° |
| 2026-05-04 08:05 | 50.04892 | 8.59775 | 369 ft | 4 kts | 250° |
| 2026-05-04 08:05 | 50.04883 | 8.59736 | 369 ft | 4 kts | 250° |
| 2026-05-04 08:06 | 50.04874 | 8.59697 | 369 ft | 4 kts | 250° |
| 2026-05-04 08:06 | 50.04865 | 8.59658 | 369 ft | 3 kts | 250° |
| 2026-05-04 08:06 | 50.04863 | 8.59651 | 369 ft | 0 kts | 250° |
| 2026-05-04 08:08 | 50.04862 | 8.59649 | 369 ft | 1 kts | 250° |
| 2026-05-04 08:08 | 50.04857 | 8.59627 | 369 ft | 3 kts | 250° |
| 2026-05-04 08:10 | 50.04646 | 8.58757 | 369 ft | 13 kts | 189° |
| 2026-05-04 08:11 | 50.04569 | 8.58696 | 370 ft | 12 kts | 220° |
| 2026-05-04 08:11 | 50.04463 | 8.58485 | 369 ft | 14 kts | 249° |
| 2026-05-04 08:11 | 50.04437 | 8.58377 | 369 ft | 1 kts | 250° |
| 2026-05-04 08:12 | 50.04438 | 8.58381 | 370 ft | 0 kts | 250° |
| 2026-05-04 08:12 | 50.04425 | 8.58329 | 369 ft | 27 kts | 249° |
| 2026-05-04 08:12 | 50.04260 | 8.57636 | 363 ft | 107 kts | 250° |
| 2026-05-04 08:12 | 50.03931 | 8.56248 | 546 ft | 154 kts | 249° |
| 2026-05-04 08:13 | 50.03555 | 8.54659 | 1426 ft | 164 kts | 249° |
| 2026-05-04 08:13 | 50.03170 | 8.52882 | 2268 ft | 187 kts | 251° |
| 2026-05-04 08:13 | 50.02719 | 8.50971 | 3459 ft | 190 kts | 242° |
| 2026-05-04 08:13 | 50.01828 | 8.49400 | 4681 ft | 201 kts | 218° |
| 2026-05-04 08:14 | 50.00522 | 8.48549 | 5936 ft | 209 kts | 192° |
| 2026-05-04 08:14 | 49.99209 | 8.48372 | 6905 ft | 186 kts | 174° |
| 2026-05-04 08:14 | 49.97931 | 8.49273 | 7175 ft | 224 kts | 142° |
| 2026-05-04 08:16 | 49.93468 | 8.68808 | 11417 ft | 328 kts | 112° |
| 2026-05-04 08:16 | 49.92267 | 8.71767 | 12281 ft | 325 kts | 139° |
| 2026-05-04 08:16 | 49.90434 | 8.73652 | 13279 ft | 320 kts | 158° |
| 2026-05-04 08:17 | 49.88387 | 8.75039 | 14287 ft | 322 kts | 157° |
| 2026-05-04 08:17 | 49.86499 | 8.76973 | 15182 ft | 334 kts | 137° |
| 2026-05-04 08:17 | 49.85240 | 8.80048 | 16126 ft | 342 kts | 121° |
| 2026-05-04 08:17 | 49.84286 | 8.83464 | 16984 ft | 352 kts | 109° |
| 2026-05-04 08:19 | 49.86937 | 9.11572 | 22119 ft | 397 kts | 81° |
| 2026-05-04 08:19 | 49.87449 | 9.15819 | 22744 ft | 402 kts | 81° |
| 2026-05-04 08:20 | 49.87975 | 9.20112 | 23379 ft | 407 kts | 81° |
| 2026-05-04 08:20 | 49.88514 | 9.24453 | 23965 ft | 411 kts | 81° |
| 2026-05-04 08:20 | 49.89056 | 9.28836 | 24550 ft | 415 kts | 81° |
| 2026-05-04 08:20 | 49.89601 | 9.33243 | 25142 ft | 418 kts | 81° |
| 2026-05-04 08:21 | 49.90152 | 9.37689 | 25709 ft | 422 kts | 81° |
| 2026-05-04 08:21 | 49.90714 | 9.42185 | 26257 ft | 425 kts | 81° |
| 2026-05-04 08:21 | 49.91280 | 9.46703 | 26777 ft | 429 kts | 81° |
| 2026-05-04 08:21 | 49.91847 | 9.51210 | 27260 ft | 432 kts | 81° |
| 2026-05-04 08:22 | 49.92430 | 9.55815 | 27762 ft | 436 kts | 81° |
| 2026-05-04 08:22 | 49.93019 | 9.60442 | 28239 ft | 439 kts | 81° |
| 2026-05-04 08:24 | 49.97446 | 9.93967 | 29051 ft | 459 kts | 80° |
| 2026-05-04 08:24 | 49.98092 | 9.98821 | 29029 ft | 458 kts | 80° |
| 2026-05-04 08:24 | 49.99369 | 10.08548 | 29031 ft | 460 kts | 80° |
| 2026-05-04 08:25 | 50.00635 | 10.18270 | 29029 ft | 461 kts | 80° |
| 2026-05-04 08:25 | 50.01901 | 10.28034 | 29031 ft | 461 kts | 80° |
| 2026-05-04 08:27 | 50.06903 | 10.67185 | 29037 ft | 461 kts | 80° |
| 2026-05-04 08:28 | 50.07177 | 10.77016 | 29056 ft | 453 kts | 106° |
| 2026-05-04 08:28 | 50.05184 | 10.86296 | 29017 ft | 450 kts | 113° |
| 2026-05-04 08:29 | 50.03085 | 10.95450 | 29037 ft | 450 kts | 112° |
| 2026-05-04 08:31 | 49.96641 | 11.31133 | 29034 ft | 456 kts | 94° |
| 2026-05-04 08:33 | 49.95430 | 11.70273 | 29027 ft | 453 kts | 95° |
| 2026-05-04 08:35 | 49.94364 | 12.04461 | 28679 ft | 454 kts | 93° |
| 2026-05-04 08:35 | 49.94276 | 12.09328 | 28238 ft | 449 kts | 93° |
| 2026-05-04 08:35 | 49.94182 | 12.14080 | 27808 ft | 443 kts | 93° |
| 2026-05-04 08:35 | 49.94082 | 12.18835 | 27391 ft | 439 kts | 94° |
| 2026-05-04 08:37 | 49.93391 | 12.46721 | 25581 ft | 423 kts | 94° |
| 2026-05-04 08:37 | 49.93260 | 12.51277 | 25302 ft | 422 kts | 94° |
| 2026-05-04 08:37 | 49.93127 | 12.55831 | 25029 ft | 420 kts | 94° |
| 2026-05-04 08:38 | 49.92990 | 12.60351 | 24772 ft | 418 kts | 94° |
| 2026-05-04 08:38 | 49.92855 | 12.64851 | 24511 ft | 416 kts | 94° |
| 2026-05-04 08:38 | 49.92722 | 12.69328 | 24253 ft | 415 kts | 94° |
| 2026-05-04 08:40 | 49.91751 | 12.99996 | 21341 ft | 397 kts | 95° |
| 2026-05-04 08:40 | 49.91610 | 13.04283 | 20908 ft | 395 kts | 95° |
| 2026-05-04 08:40 | 49.91466 | 13.08531 | 20489 ft | 393 kts | 95° |
| 2026-05-04 08:41 | 49.91322 | 13.12747 | 20088 ft | 391 kts | 95° |
| 2026-05-04 08:41 | 49.91181 | 13.16887 | 19709 ft | 388 kts | 95° |
| 2026-05-04 08:41 | 49.91039 | 13.21041 | 19384 ft | 386 kts | 95° |
| 2026-05-04 08:41 | 49.90895 | 13.25190 | 19062 ft | 385 kts | 95° |
| 2026-05-04 08:42 | 49.90747 | 13.29323 | 18744 ft | 383 kts | 95° |
| 2026-05-04 08:42 | 49.90597 | 13.33460 | 18423 ft | 382 kts | 95° |
| 2026-05-04 08:42 | 49.90445 | 13.37556 | 18081 ft | 380 kts | 95° |
| 2026-05-04 08:42 | 49.90330 | 13.41645 | 17720 ft | 378 kts | 92° |
| 2026-05-04 08:43 | 49.90313 | 13.45700 | 17307 ft | 377 kts | 92° |
| 2026-05-04 08:43 | 49.90301 | 13.49766 | 16872 ft | 375 kts | 92° |
| 2026-05-04 08:43 | 49.90276 | 13.53798 | 16442 ft | 372 kts | 92° |
| 2026-05-04 08:43 | 49.90244 | 13.57791 | 16016 ft | 369 kts | 92° |
| 2026-05-04 08:44 | 49.90209 | 13.61761 | 15599 ft | 366 kts | 92° |
| 2026-05-04 08:44 | 49.90171 | 13.65653 | 15203 ft | 364 kts | 93° |
| 2026-05-04 08:46 | 49.89875 | 13.91965 | 12175 ft | 327 kts | 93° |
| 2026-05-04 08:46 | 49.89840 | 13.95461 | 11731 ft | 321 kts | 94° |
| 2026-05-04 08:46 | 49.89793 | 13.98900 | 11294 ft | 317 kts | 94° |
| 2026-05-04 08:46 | 49.89747 | 14.02300 | 10851 ft | 314 kts | 94° |
| 2026-05-04 08:47 | 49.89703 | 14.05661 | 10425 ft | 310 kts | 93° |
| 2026-05-04 08:47 | 49.89659 | 14.08937 | 9940 ft | 297 kts | 94° |
| 2026-05-04 08:47 | 49.89622 | 14.12085 | 9449 ft | 290 kts | 93° |
| 2026-05-04 08:47 | 49.89575 | 14.15206 | 8983 ft | 287 kts | 94° |
| 2026-05-04 08:48 | 49.89532 | 14.18234 | 8521 ft | 275 kts | 93° |
| 2026-05-04 08:48 | 49.89497 | 14.21199 | 8102 ft | 276 kts | 93° |
| 2026-05-04 08:48 | 49.89451 | 14.24179 | 7697 ft | 275 kts | 92° |
| 2026-05-04 08:48 | 49.89407 | 14.27091 | 7285 ft | 269 kts | 92° |
| 2026-05-04 08:49 | 49.89362 | 14.29991 | 6895 ft | 270 kts | 92° |
| 2026-05-04 08:50 | 49.89087 | 14.46973 | 5077 ft | 244 kts | 92° |
| 2026-05-04 08:50 | 49.89038 | 14.49601 | 4819 ft | 243 kts | 92° |
| 2026-05-04 08:51 | 49.88993 | 14.52218 | 4547 ft | 242 kts | 91° |
| 2026-05-04 08:51 | 49.88965 | 14.54800 | 4277 ft | 239 kts | 84° |
| 2026-05-04 08:51 | 49.89504 | 14.57195 | 3972 ft | 237 kts | 51° |
| 2026-05-04 08:51 | 49.90736 | 14.58701 | 4105 ft | 216 kts | 29° |
| 2026-05-04 08:52 | 49.92113 | 14.59708 | 3992 ft | 220 kts | 11° |
| 2026-05-04 08:52 | 49.93592 | 14.59614 | 4016 ft | 212 kts | 340° |
| 2026-05-04 08:52 | 49.94687 | 14.58189 | 4031 ft | 207 kts | 303° |
| 2026-05-04 08:52 | 49.95462 | 14.56266 | 4023 ft | 212 kts | 302° |
| 2026-05-04 08:53 | 49.96281 | 14.54368 | 4079 ft | 211 kts | 308° |
| 2026-05-04 08:54 | 50.02486 | 14.41742 | 3399 ft | 208 kts | 308° |
| 2026-05-04 08:55 | 50.03344 | 14.39973 | 3123 ft | 203 kts | 309° |
| 2026-05-04 08:55 | 50.04176 | 14.38253 | 2841 ft | 193 kts | 309° |
| 2026-05-04 08:55 | 50.04932 | 14.36690 | 2620 ft | 174 kts | 309° |
| 2026-05-04 08:55 | 50.05644 | 14.35224 | 2383 ft | 163 kts | 309° |
| 2026-05-04 08:57 | 50.09804 | 14.26601 | 1205 ft | 92 kts | 306° |
| 2026-05-04 09:01 | 50.10393 | 14.26694 | 1171 ft | 1 kts | 33° |
| 2026-05-04 09:01 | 50.10393 | 14.26695 | 1171 ft | 0 kts | 33° |